createdAt,value
2022-12-06T00:00:53.755Z,73.26
2022-12-06T00:02:56.509Z,73.57
2022-12-06T00:04:59.299Z,73.70
2022-12-06T00:07:02.016Z,73.62
2022-12-06T00:09:05.178Z,73.61
2022-12-06T00:11:10.256Z,73.74
2022-12-06T00:13:12.918Z,73.69
2022-12-06T00:15:17.070Z,73.90
2022-12-06T00:17:19.781Z,73.79
2022-12-06T00:19:24.317Z,73.61
2022-12-06T00:21:28.977Z,73.77
2022-12-06T00:23:31.864Z,73.50
2022-12-06T00:25:37.112Z,72.92
2022-12-06T00:27:39.829Z,72.87
2022-12-06T00:29:42.485Z,73.20
2022-12-06T00:31:47.229Z,73.33
2022-12-06T00:33:50.812Z,73.41
2022-12-06T00:35:57.104Z,73.25
2022-12-06T00:37:59.758Z,73.18
2022-12-06T00:40:02.555Z,73.19
2022-12-06T00:42:05.392Z,73.31
2022-12-06T00:44:08.860Z,73.06
2022-12-06T00:46:14.151Z,73.04
2022-12-06T00:48:18.285Z,72.86
2022-12-06T00:50:20.969Z,72.95
2022-12-06T00:52:23.644Z,73.19
2022-12-06T00:54:26.507Z,73.01
2022-12-06T00:56:29.582Z,72.96
2022-12-06T00:58:32.287Z,72.78
2022-12-06T01:00:35.011Z,73.03
2022-12-06T01:02:37.716Z,72.68
2022-12-06T01:04:41.815Z,72.48
2022-12-06T01:06:44.505Z,72.58
2022-12-06T01:08:47.580Z,72.72
2022-12-06T01:10:54.134Z,72.55
2022-12-06T01:12:56.781Z,72.47
2022-12-06T01:14:59.407Z,72.55
2022-12-06T01:17:02.026Z,72.35
2022-12-06T01:19:09.271Z,72.25
2022-12-06T01:21:15.198Z,72.27
2022-12-06T01:23:17.851Z,72.37
2022-12-06T01:25:22.389Z,72.51
2022-12-06T01:27:27.869Z,72.28
2022-12-06T01:29:30.497Z,72.47
2022-12-06T01:31:38.145Z,72.52
2022-12-06T01:33:41.512Z,72.59
2022-12-06T01:35:44.230Z,72.82
2022-12-06T01:37:48.181Z,72.61
2022-12-06T01:39:50.793Z,72.73
2022-12-06T01:41:53.553Z,72.77
2022-12-06T01:43:57.733Z,72.62
2022-12-06T01:46:04.490Z,72.86
2022-12-06T01:48:07.226Z,72.71
2022-12-06T01:50:14.445Z,72.54
2022-12-06T01:52:18.612Z,72.54
2022-12-06T01:54:25.355Z,72.30
2022-12-06T01:56:28.114Z,72.39
2022-12-06T01:58:36.864Z,72.26
2022-12-06T02:00:39.597Z,72.35
2022-12-06T02:02:42.845Z,72.52
2022-12-06T02:04:45.906Z,72.63
2022-12-06T02:06:48.780Z,72.60
2022-12-06T02:08:53.361Z,72.64
2022-12-06T02:10:57.434Z,72.87
2022-12-06T02:13:00.536Z,72.77
2022-12-06T02:15:03.867Z,72.61
2022-12-06T02:17:20.624Z,72.72
2022-12-06T02:20:08.258Z,72.67
2022-12-06T02:22:18.792Z,72.34
2022-12-06T02:24:54.573Z,72.51
2022-12-06T02:27:16.622Z,72.42
2022-12-06T02:29:25.053Z,72.36
2022-12-06T02:31:34.879Z,72.42
2022-12-06T02:33:45.165Z,72.34
2022-12-06T02:35:51.959Z,73.08
2022-12-06T02:38:00.109Z,73.03
2022-12-06T02:40:07.086Z,72.89
2022-12-06T02:42:14.430Z,73.23
2022-12-06T02:44:24.583Z,73.39
2022-12-06T02:46:32.764Z,73.43
2022-12-06T02:48:36.036Z,73.76
2022-12-06T02:50:44.115Z,73.87
2022-12-06T02:52:50.762Z,73.92
2022-12-06T02:54:56.456Z,74.13
2022-12-06T02:56:59.088Z,73.84
2022-12-06T02:59:01.923Z,74.08
2022-12-06T03:01:08.010Z,73.56
2022-12-06T03:03:25.462Z,73.61
2022-12-06T03:05:34.594Z,73.74
2022-12-06T03:07:42.454Z,73.65
2022-12-06T03:09:54.371Z,73.71
2022-12-06T03:11:59.461Z,74.03
2022-12-06T03:14:06.326Z,73.64
2022-12-06T03:16:18.206Z,73.47
2022-12-06T03:18:29.741Z,73.37
2022-12-06T03:20:42.858Z,73.14
2022-12-06T03:22:49.912Z,72.46
2022-12-06T03:24:53.733Z,72.31
2022-12-06T03:26:57.675Z,72.28
2022-12-06T03:29:02.344Z,72.52
2022-12-06T03:31:10.796Z,72.71
2022-12-06T03:33:14.976Z,72.42
2022-12-06T03:35:24.551Z,72.58
2022-12-06T03:37:28.906Z,72.41
2022-12-06T03:39:37.776Z,72.67
2022-12-06T03:41:45.852Z,72.57
2022-12-06T03:43:48.736Z,72.85
2022-12-06T03:45:57.864Z,72.87
2022-12-06T03:48:05.932Z,72.60
2022-12-06T03:50:14.566Z,72.55
2022-12-06T03:52:18.567Z,72.48
2022-12-06T03:54:21.327Z,72.56
2022-12-06T03:56:24.522Z,72.40
2022-12-06T03:58:27.252Z,72.38
2022-12-06T04:00:29.862Z,71.71
2022-12-06T04:02:32.483Z,72.09
2022-12-06T04:04:35.102Z,72.11
2022-12-06T04:06:37.749Z,72.20
2022-12-06T04:08:41.807Z,72.00
2022-12-06T04:10:44.369Z,72.28
2022-12-06T04:13:00.938Z,72.16
2022-12-06T04:15:03.710Z,72.10
2022-12-06T04:17:24.060Z,71.75
2022-12-06T04:19:26.713Z,72.17
2022-12-06T04:21:55.504Z,71.70
2022-12-06T04:24:00.028Z,72.04
2022-12-06T04:26:03.458Z,72.28
2022-12-06T04:28:23.904Z,72.02
2022-12-06T04:30:44.050Z,71.53
2022-12-06T04:33:04.156Z,72.35
2022-12-06T04:35:24.810Z,72.41
2022-12-06T04:37:44.982Z,72.46
2022-12-06T04:39:49.161Z,72.17
2022-12-06T04:42:09.246Z,72.28
2022-12-06T04:44:11.328Z,71.90
2022-12-06T04:46:16.492Z,72.37
2022-12-06T04:48:19.103Z,72.46
2022-12-06T04:50:21.715Z,72.31
2022-12-06T04:52:24.367Z,72.54
2022-12-06T04:54:27.574Z,73.09
2022-12-06T04:56:31.520Z,73.14
2022-12-06T04:58:34.096Z,73.13
2022-12-06T05:00:36.787Z,72.81
2022-12-06T05:02:39.477Z,72.92
2022-12-06T05:04:42.315Z,73.08
2022-12-06T05:06:45.087Z,73.37
2022-12-06T05:08:47.714Z,73.02
2022-12-06T05:10:51.373Z,73.63
2022-12-06T05:12:55.383Z,73.36
2022-12-06T05:14:57.964Z,73.19
2022-12-06T05:17:00.556Z,73.38
2022-12-06T05:19:03.131Z,74.00
2022-12-06T05:21:07.642Z,73.99
2022-12-06T05:23:10.235Z,74.19
2022-12-06T05:25:12.943Z,74.00
2022-12-06T05:27:15.537Z,74.07
2022-12-06T05:29:19.900Z,74.08
2022-12-06T05:31:23.514Z,73.78
2022-12-06T05:33:26.682Z,74.06
2022-12-06T05:35:29.506Z,73.60
2022-12-06T05:37:32.159Z,73.46
2022-12-06T05:39:34.791Z,73.59
2022-12-06T05:41:37.412Z,73.40
2022-12-06T05:43:40.097Z,73.24
2022-12-06T05:45:44.560Z,73.14
2022-12-06T05:47:47.286Z,73.02
2022-12-06T05:49:51.136Z,73.29
2022-12-06T05:51:53.812Z,73.21
2022-12-06T05:53:56.444Z,73.04
2022-12-06T05:56:05.351Z,72.88
2022-12-06T05:58:08.409Z,73.06
2022-12-06T06:00:11.813Z,72.77
2022-12-06T06:02:15.777Z,72.82
2022-12-06T06:04:18.443Z,73.23
2022-12-06T06:06:21.299Z,73.07
2022-12-06T06:08:24.020Z,73.13
2022-12-06T06:10:26.793Z,73.28
2022-12-06T06:12:29.381Z,73.75
2022-12-06T06:14:32.000Z,73.65
2022-12-06T06:16:34.818Z,72.18
2022-12-06T06:18:38.926Z,72.53
2022-12-06T06:20:41.550Z,72.40
2022-12-06T06:22:44.165Z,72.24
2022-12-06T06:24:47.012Z,72.38
2022-12-06T06:26:49.628Z,72.47
2022-12-06T06:28:52.211Z,72.25
2022-12-06T06:30:54.836Z,71.91
2022-12-06T06:32:57.388Z,72.43
2022-12-06T06:35:01.322Z,71.96
2022-12-06T06:37:03.940Z,71.75
2022-12-06T06:39:06.557Z,71.71
2022-12-06T06:41:09.391Z,71.69
2022-12-06T06:43:21.067Z,72.02
2022-12-06T06:45:28.598Z,71.59
2022-12-06T06:47:31.749Z,71.87
2022-12-06T06:49:34.382Z,71.80
2022-12-06T06:51:38.293Z,72.11
2022-12-06T06:53:41.043Z,71.98
2022-12-06T06:55:44.356Z,71.82
2022-12-06T06:57:47.633Z,71.02
2022-12-06T06:59:50.268Z,70.75
2022-12-06T07:01:53.121Z,70.58
2022-12-06T07:03:56.148Z,70.72
2022-12-06T07:06:00.742Z,70.82
2022-12-06T07:08:04.780Z,70.95
2022-12-06T07:10:08.727Z,70.87
2022-12-06T07:12:11.338Z,70.86
2022-12-06T07:14:13.924Z,70.90
2022-12-06T07:16:17.661Z,70.93
2022-12-06T07:18:21.102Z,70.72
2022-12-06T07:20:23.693Z,70.79
2022-12-06T07:22:26.282Z,70.89
2022-12-06T07:24:30.224Z,71.00
2022-12-06T07:26:32.891Z,71.24
2022-12-06T07:28:36.927Z,71.00
2022-12-06T07:30:39.654Z,71.55
2022-12-06T07:32:42.263Z,71.16
2022-12-06T07:34:44.863Z,71.75
2022-12-06T07:36:47.523Z,71.25
2022-12-06T07:38:52.140Z,71.60
2022-12-06T07:41:04.430Z,71.63
2022-12-06T07:43:30.544Z,71.65
2022-12-06T07:45:32.209Z,71.74
2022-12-06T07:47:37.477Z,71.84
2022-12-06T07:49:40.077Z,71.68
2022-12-06T07:51:42.814Z,72.22
2022-12-06T07:53:45.419Z,72.21
2022-12-06T07:55:48.245Z,72.45
2022-12-06T07:57:55.023Z,72.59
2022-12-06T07:59:57.927Z,72.89
2022-12-06T08:02:00.766Z,72.76
2022-12-06T08:04:04.858Z,72.93
2022-12-06T08:06:08.682Z,72.97
2022-12-06T08:08:11.286Z,72.93
2022-12-06T08:10:14.406Z,72.83
2022-12-06T08:12:17.031Z,72.67
2022-12-06T08:14:21.007Z,72.77
2022-12-06T08:16:23.873Z,72.68
2022-12-06T08:18:26.987Z,72.71
2022-12-06T08:20:29.638Z,72.75
2022-12-06T08:22:32.217Z,73.07
2022-12-06T08:24:34.850Z,72.61
2022-12-06T08:26:37.431Z,72.43
2022-12-06T08:28:40.348Z,72.61
2022-12-06T08:30:44.310Z,72.38
2022-12-06T08:32:46.969Z,72.70
2022-12-06T08:34:49.643Z,72.73
2022-12-06T08:36:53.215Z,72.70
2022-12-06T08:38:57.003Z,72.99
2022-12-06T08:41:00.417Z,72.78
2022-12-06T08:43:03.014Z,72.49
2022-12-06T08:45:06.602Z,72.87
2022-12-06T08:47:11.946Z,72.79
2022-12-06T08:49:16.531Z,72.74
2022-12-06T08:51:19.193Z,72.63
2022-12-06T08:53:21.876Z,72.19
2022-12-06T08:55:24.519Z,72.12
2022-12-06T08:57:27.127Z,72.31
2022-12-06T08:59:29.833Z,72.01
2022-12-06T09:01:37.874Z,71.85
2022-12-06T09:03:42.559Z,72.14
2022-12-06T09:05:45.165Z,71.90
2022-12-06T09:07:47.865Z,72.08
2022-12-06T09:09:50.486Z,72.11
2022-12-06T09:11:53.094Z,71.36
2022-12-06T09:13:55.764Z,71.39
2022-12-06T09:15:58.437Z,71.53
2022-12-06T09:18:01.607Z,71.79
2022-12-06T09:20:07.764Z,71.75
2022-12-06T09:22:10.855Z,71.92
2022-12-06T09:24:15.153Z,71.89
2022-12-06T09:26:18.674Z,72.03
2022-12-06T09:28:21.283Z,72.11
2022-12-06T09:30:24.592Z,72.43
2022-12-06T09:32:27.298Z,72.32
2022-12-06T09:34:31.051Z,72.70
2022-12-06T09:36:38.698Z,72.45
2022-12-06T09:38:44.626Z,72.07
2022-12-06T09:40:57.890Z,71.82
2022-12-06T09:43:14.824Z,71.76
2022-12-06T09:45:32.398Z,71.67
2022-12-06T09:47:54.677Z,71.54
2022-12-06T09:50:09.641Z,72.02
2022-12-06T09:52:28.816Z,72.06
2022-12-06T09:54:53.501Z,72.50
2022-12-06T09:57:06.990Z,72.29
2022-12-06T09:59:20.126Z,72.57
2022-12-06T10:01:30.639Z,72.30
2022-12-06T10:03:56.453Z,71.58
2022-12-06T10:06:02.848Z,71.93
2022-12-06T10:08:21.115Z,72.29
2022-12-06T10:10:33.071Z,71.51
2022-12-06T10:12:44.453Z,71.63
2022-12-06T10:15:07.096Z,71.93
2022-12-06T10:17:22.111Z,71.78
2022-12-06T10:19:42.563Z,72.09
2022-12-06T10:22:00.076Z,71.85
2022-12-06T10:24:15.825Z,71.84
2022-12-06T10:26:24.489Z,71.71
2022-12-06T10:28:37.788Z,71.60
2022-12-06T10:30:51.002Z,71.67
2022-12-06T10:32:57.005Z,71.22
2022-12-06T10:35:12.584Z,71.24
2022-12-06T10:37:25.931Z,71.06
2022-12-06T10:39:38.263Z,71.06
2022-12-06T10:41:49.218Z,71.19
2022-12-06T10:43:56.423Z,71.24
2022-12-06T10:46:25.527Z,71.19
2022-12-06T10:48:37.137Z,71.08
2022-12-06T10:50:42.367Z,70.90
2022-12-06T10:52:51.216Z,70.79
2022-12-06T10:55:08.393Z,71.04
2022-12-06T10:57:20.186Z,70.60
2022-12-06T10:59:28.250Z,70.32
2022-12-06T11:01:37.882Z,69.46
2022-12-06T11:03:43.628Z,70.01
2022-12-06T11:05:51.216Z,70.09
2022-12-06T11:07:58.226Z,69.85
2022-12-06T11:10:03.245Z,70.31
2022-12-06T11:12:25.363Z,70.45
2022-12-06T11:14:39.269Z,70.42
2022-12-06T11:16:45.583Z,70.34
2022-12-06T11:18:49.434Z,69.91
2022-12-06T11:20:58.669Z,69.94
2022-12-06T11:23:07.186Z,69.79
2022-12-06T11:25:18.452Z,69.88
2022-12-06T11:27:31.891Z,69.62
2022-12-06T11:29:34.486Z,69.62
2022-12-06T11:31:41.449Z,69.73
2022-12-06T11:33:45.754Z,69.91
2022-12-06T11:35:49.113Z,69.67
2022-12-06T11:38:03.210Z,69.13
2022-12-06T11:40:16.048Z,69.66
2022-12-06T11:42:24.639Z,69.75
2022-12-06T11:44:29.638Z,69.73
2022-12-06T11:46:32.520Z,69.80
2022-12-06T11:48:36.674Z,69.84
2022-12-06T11:50:39.287Z,69.90
2022-12-06T11:52:48.229Z,70.13
2022-12-06T11:54:56.085Z,70.17
2022-12-06T11:57:11.959Z,70.19
2022-12-06T11:59:25.735Z,69.96
2022-12-06T12:01:39.890Z,70.09
2022-12-06T12:03:46.017Z,70.26
2022-12-06T12:05:48.709Z,69.94
2022-12-06T12:07:55.175Z,70.08
2022-12-06T12:10:01.461Z,70.09
2022-12-06T12:12:06.902Z,70.57
2022-12-06T12:14:27.684Z,70.57
2022-12-06T12:16:34.545Z,70.78
2022-12-06T12:18:43.181Z,70.66
2022-12-06T12:20:47.455Z,70.67
2022-12-06T12:23:02.040Z,70.63
2022-12-06T12:25:23.157Z,70.51
2022-12-06T12:27:47.082Z,70.53
2022-12-06T12:30:17.533Z,70.49
2022-12-06T12:32:20.124Z,70.53
2022-12-06T12:34:28.579Z,70.66
2022-12-06T12:36:31.301Z,70.47
2022-12-06T12:38:39.846Z,70.72
2022-12-06T12:40:44.813Z,70.37
2022-12-06T12:42:47.561Z,70.62
2022-12-06T12:44:54.937Z,70.79
2022-12-06T12:46:59.355Z,70.68
2022-12-06T12:49:21.360Z,70.58
2022-12-06T12:51:27.590Z,70.59
2022-12-06T12:53:32.311Z,70.40
2022-12-06T12:55:37.800Z,70.80
2022-12-06T12:57:40.737Z,70.87
2022-12-06T12:59:45.461Z,70.46
2022-12-06T13:01:54.462Z,70.78
2022-12-06T13:04:01.838Z,70.88
2022-12-06T13:06:04.671Z,71.13
2022-12-06T13:08:14.106Z,70.91
2022-12-06T13:10:22.738Z,70.95
2022-12-06T13:12:31.926Z,70.98
2022-12-06T13:14:38.312Z,71.02
2022-12-06T13:16:42.397Z,71.01
2022-12-06T13:18:49.432Z,71.03
2022-12-06T13:20:55.026Z,70.11
2022-12-06T13:23:02.275Z,70.49
2022-12-06T13:25:08.056Z,70.57
2022-12-06T13:27:16.011Z,70.49
2022-12-06T13:29:26.072Z,70.79
2022-12-06T13:31:33.846Z,70.82
2022-12-06T13:33:40.751Z,70.70
2022-12-06T13:35:52.072Z,71.02
2022-12-06T13:37:57.783Z,70.83
2022-12-06T13:40:01.195Z,71.17
2022-12-06T13:42:21.244Z,71.27
2022-12-06T13:44:42.612Z,71.19
2022-12-06T13:46:45.261Z,71.13
2022-12-06T13:48:52.579Z,71.13
2022-12-06T13:50:58.469Z,71.14
2022-12-06T13:53:01.883Z,71.01
2022-12-06T13:55:59.089Z,70.99
2022-12-06T13:58:35.526Z,71.02
2022-12-06T14:00:51.205Z,71.12
2022-12-06T14:02:54.770Z,71.17
2022-12-06T14:04:57.553Z,71.16
2022-12-06T14:07:02.584Z,71.24
2022-12-06T14:09:05.449Z,71.35
2022-12-06T14:11:22.389Z,71.37
2022-12-06T14:13:26.056Z,71.27
2022-12-06T14:15:29.461Z,71.41
2022-12-06T14:18:01.624Z,71.54
2022-12-06T14:20:02.529Z,71.41
2022-12-06T14:22:19.225Z,71.44
2022-12-06T14:24:31.690Z,71.45
2022-12-06T14:26:36.425Z,71.42
2022-12-06T14:28:39.052Z,71.62
2022-12-06T14:30:43.663Z,71.50
2022-12-06T14:32:48.385Z,71.49
2022-12-06T14:34:50.986Z,71.56
2022-12-06T14:36:54.207Z,71.63
2022-12-06T14:39:00.625Z,71.71
2022-12-06T14:41:20.759Z,71.78
2022-12-06T14:43:26.573Z,71.89
2022-12-06T14:45:31.893Z,71.80
2022-12-06T14:47:35.117Z,71.84
2022-12-06T14:49:54.427Z,72.06
2022-12-06T14:51:57.048Z,71.92
2022-12-06T14:54:18.015Z,72.07
2022-12-06T14:56:24.629Z,72.20
2022-12-06T14:58:30.880Z,72.01
2022-12-06T15:00:40.385Z,72.10
2022-12-06T15:03:01.061Z,72.11
2022-12-06T15:05:04.581Z,72.43
2022-12-06T15:07:08.389Z,72.65
2022-12-06T15:09:14.637Z,72.83
2022-12-06T15:11:53.043Z,73.21
2022-12-06T15:14:19.732Z,73.41
2022-12-06T15:16:22.543Z,73.43
2022-12-06T15:18:29.812Z,73.59
2022-12-06T15:20:32.434Z,73.88
2022-12-06T15:22:38.150Z,74.08
2022-12-06T15:24:40.776Z,74.04
2022-12-06T15:26:43.355Z,74.22
2022-12-06T15:28:46.591Z,74.45
2022-12-06T15:30:51.091Z,74.60
2022-12-06T15:32:53.721Z,74.62
2022-12-06T15:34:56.353Z,74.63
2022-12-06T15:37:36.906Z,74.53
2022-12-06T15:39:23.819Z,74.70
2022-12-06T15:41:28.783Z,74.54
2022-12-06T15:43:33.546Z,74.59
2022-12-06T15:45:36.189Z,74.31
2022-12-06T15:47:40.133Z,74.46
2022-12-06T15:49:43.131Z,74.32
2022-12-06T15:51:46.080Z,74.41
2022-12-06T15:53:50.511Z,74.55
2022-12-06T15:55:53.844Z,74.58
2022-12-06T15:57:56.560Z,74.64
2022-12-06T15:59:59.289Z,74.51
2022-12-06T16:02:02.363Z,74.45
2022-12-06T16:04:06.510Z,74.56
2022-12-06T16:06:12.658Z,74.54
2022-12-06T16:08:15.427Z,74.71
2022-12-06T16:10:22.386Z,74.47
2022-12-06T16:12:25.968Z,74.62
2022-12-06T16:14:28.576Z,74.73
2022-12-06T16:16:31.438Z,74.78
2022-12-06T16:18:34.107Z,74.77
2022-12-06T16:20:40.955Z,74.66
2022-12-06T16:23:01.124Z,74.91
2022-12-06T16:25:03.884Z,75.07
2022-12-06T16:27:06.614Z,75.27
2022-12-06T16:29:12.732Z,75.22
2022-12-06T16:31:15.446Z,75.60
2022-12-06T16:33:20.276Z,75.77
2022-12-06T16:35:22.906Z,76.10
2022-12-06T16:37:26.873Z,76.26
2022-12-06T16:39:31.289Z,76.11
2022-12-06T16:41:36.259Z,76.47
2022-12-06T16:43:38.896Z,76.59
2022-12-06T16:45:45.023Z,76.50
2022-12-06T16:47:48.621Z,76.72
2022-12-06T16:49:51.234Z,76.58
2022-12-06T16:51:53.856Z,76.59
2022-12-06T16:53:57.898Z,76.37
2022-12-06T16:56:00.521Z,76.15
2022-12-06T16:58:03.352Z,76.18
2022-12-06T17:00:07.235Z,75.85
2022-12-06T17:02:25.023Z,75.51
2022-12-06T17:04:27.670Z,75.12
2022-12-06T17:06:32.349Z,75.06
2022-12-06T17:08:34.978Z,74.72
2022-12-06T17:10:38.926Z,74.49
2022-12-06T17:12:41.524Z,74.49
2022-12-06T17:14:44.236Z,74.66
2022-12-06T17:16:47.842Z,74.67
2022-12-06T17:18:50.475Z,74.57
2022-12-06T17:20:53.080Z,74.66
2022-12-06T17:22:55.694Z,74.53
2022-12-06T17:25:01.688Z,74.88
2022-12-06T17:27:06.964Z,74.78
2022-12-06T17:29:10.373Z,74.77
2022-12-06T17:31:13.033Z,74.71
2022-12-06T17:33:15.703Z,74.72
2022-12-06T17:35:18.464Z,74.61
2022-12-06T17:37:21.048Z,74.62
2022-12-06T17:39:23.824Z,74.37
2022-12-06T17:41:51.549Z,74.36
2022-12-06T17:43:56.044Z,74.41
2022-12-06T17:45:58.666Z,74.33
2022-12-06T17:48:01.329Z,74.25
2022-12-06T17:50:05.601Z,74.05
2022-12-06T17:52:08.349Z,74.05
2022-12-06T17:54:11.222Z,74.16
2022-12-06T17:56:24.613Z,74.13
2022-12-06T17:58:27.237Z,74.06
2022-12-06T18:00:31.158Z,74.03
2022-12-06T18:02:34.036Z,73.94
2022-12-06T18:04:36.792Z,73.80
2022-12-06T18:06:41.932Z,73.69
2022-12-06T18:08:44.548Z,73.46
2022-12-06T18:10:47.134Z,73.19
2022-12-06T18:12:49.706Z,73.28
2022-12-06T18:14:53.248Z,72.96
2022-12-06T18:16:57.236Z,73.05
2022-12-06T18:19:05.951Z,72.85
2022-12-06T18:21:12.182Z,72.55
2022-12-06T18:23:14.864Z,72.46
2022-12-06T18:25:17.452Z,72.33
2022-12-06T18:27:20.075Z,72.38
2022-12-06T18:29:24.432Z,72.18
2022-12-06T18:31:28.564Z,72.36
2022-12-06T18:33:34.227Z,72.14
2022-12-06T18:35:36.989Z,72.08
2022-12-06T18:37:39.859Z,71.80
2022-12-06T18:39:42.509Z,71.85
2022-12-06T18:41:45.500Z,71.76
2022-12-06T18:43:48.842Z,71.91
2022-12-06T18:45:58.714Z,72.04
2022-12-06T18:48:02.305Z,71.77
2022-12-06T18:50:10.217Z,71.77
2022-12-06T18:52:13.681Z,71.94
2022-12-06T18:54:16.402Z,71.87
2022-12-06T18:56:20.605Z,71.93
2022-12-06T18:58:23.206Z,72.02
2022-12-06T19:00:25.875Z,71.93
2022-12-06T19:02:28.542Z,71.77
2022-12-06T19:04:31.195Z,71.70
2022-12-06T19:06:37.116Z,71.55
2022-12-06T19:08:43.500Z,71.74
2022-12-06T19:10:46.079Z,71.64
2022-12-06T19:12:49.017Z,71.54
2022-12-06T19:14:51.812Z,71.49
2022-12-06T19:16:54.546Z,71.62
2022-12-06T19:18:59.039Z,71.63
2022-12-06T19:21:01.942Z,71.64
2022-12-06T19:23:05.913Z,71.79
2022-12-06T19:25:09.178Z,71.86
2022-12-06T19:27:11.793Z,71.84
2022-12-06T19:29:14.526Z,71.82
2022-12-06T19:31:17.640Z,72.05
2022-12-06T19:33:21.785Z,72.04
2022-12-06T19:35:24.446Z,71.87
2022-12-06T19:37:27.206Z,71.95
2022-12-06T19:39:31.178Z,72.08
2022-12-06T19:41:57.197Z,72.01
2022-12-06T19:44:17.631Z,72.04
2022-12-06T19:46:25.143Z,72.03
2022-12-06T19:48:27.801Z,72.07
2022-12-06T19:50:30.413Z,72.08
2022-12-06T19:52:33.063Z,71.85
2022-12-06T19:54:37.573Z,72.14
2022-12-06T19:56:40.218Z,72.01
2022-12-06T19:58:43.735Z,72.21
2022-12-06T20:00:48.251Z,72.14
2022-12-06T20:02:50.864Z,72.24
2022-12-06T20:04:53.471Z,72.21
2022-12-06T20:06:56.890Z,72.14
2022-12-06T20:09:01.331Z,72.10
2022-12-06T20:11:07.591Z,72.22
2022-12-06T20:13:10.372Z,72.26
2022-12-06T20:15:13.654Z,72.17
2022-12-06T20:17:18.275Z,72.00
2022-12-06T20:19:24.210Z,72.19
2022-12-06T20:21:26.868Z,72.34
2022-12-06T20:23:29.451Z,72.20
2022-12-06T20:25:32.046Z,72.29
2022-12-06T20:27:55.879Z,72.37
2022-12-06T20:29:58.625Z,72.50
2022-12-06T20:32:02.338Z,72.67
2022-12-06T20:34:10.259Z,72.65
2022-12-06T20:36:19.237Z,72.52
2022-12-06T20:38:21.861Z,72.54
2022-12-06T20:40:31.125Z,72.65
2022-12-06T20:42:35.930Z,72.64
2022-12-06T20:44:38.668Z,72.74
2022-12-06T20:46:41.355Z,72.73
2022-12-06T20:48:45.014Z,72.65
2022-12-06T20:50:47.600Z,72.88
2022-12-06T20:52:50.234Z,73.06
2022-12-06T20:54:52.825Z,72.86
2022-12-06T20:56:55.432Z,73.03
2022-12-06T20:59:01.311Z,72.99
2022-12-06T21:01:04.626Z,73.30
2022-12-06T21:03:07.371Z,73.31
2022-12-06T21:05:10.364Z,73.29
2022-12-06T21:07:13.213Z,73.41
2022-12-06T21:09:15.880Z,73.18
2022-12-06T21:11:23.605Z,73.17
2022-12-06T21:13:27.274Z,73.29
2022-12-06T21:15:31.264Z,73.22
2022-12-06T21:17:34.059Z,73.29
2022-12-06T21:19:36.663Z,73.26
2022-12-06T21:21:41.428Z,73.20
2022-12-06T21:23:44.035Z,73.49
2022-12-06T21:25:46.633Z,73.49
2022-12-06T21:27:49.334Z,73.20
2022-12-06T21:29:51.981Z,73.66
2022-12-06T21:31:55.915Z,73.59
2022-12-06T21:33:58.892Z,73.52
2022-12-06T21:36:03.941Z,73.45
2022-12-06T21:38:06.501Z,73.67
2022-12-06T21:40:10.007Z,73.60
2022-12-06T21:42:15.483Z,73.68
2022-12-06T21:44:18.109Z,73.76
2022-12-06T21:46:23.205Z,73.68
2022-12-06T21:48:27.187Z,73.76
2022-12-06T21:50:29.797Z,73.79
2022-12-06T21:52:32.459Z,74.09
2022-12-06T21:54:35.131Z,73.76
2022-12-06T21:56:38.229Z,73.81
2022-12-06T21:58:40.933Z,74.00
2022-12-06T22:00:43.585Z,73.98
2022-12-06T22:02:50.478Z,74.16
2022-12-06T22:04:54.378Z,74.10
2022-12-06T22:06:57.036Z,74.34
2022-12-06T22:09:03.047Z,74.54
2022-12-06T22:11:07.531Z,74.42
2022-12-06T22:13:10.690Z,74.51
2022-12-06T22:15:13.336Z,74.48
2022-12-06T22:17:15.950Z,74.50
2022-12-06T22:19:18.684Z,74.67
2022-12-06T22:21:25.853Z,74.81
2022-12-06T22:23:28.867Z,74.66
2022-12-06T22:25:31.561Z,74.80
2022-12-06T22:27:34.206Z,74.56
2022-12-06T22:29:36.789Z,74.82
2022-12-06T22:31:39.470Z,74.83
2022-12-06T22:33:42.821Z,74.77
2022-12-06T22:35:45.411Z,74.70
2022-12-06T22:37:49.407Z,74.80
2022-12-06T22:39:52.047Z,74.78
2022-12-06T22:41:55.312Z,74.83
2022-12-06T22:43:59.256Z,74.89
2022-12-06T22:46:06.227Z,74.90
2022-12-06T22:48:08.826Z,75.13
2022-12-06T22:50:11.578Z,75.15
2022-12-06T22:52:14.205Z,75.11
2022-12-06T22:54:18.151Z,74.99
2022-12-06T22:56:20.928Z,75.22
2022-12-06T22:58:23.533Z,75.16
2022-12-06T23:00:26.300Z,75.09
2022-12-06T23:02:29.001Z,75.10
2022-12-06T23:04:31.735Z,74.69
2022-12-06T23:06:35.805Z,75.37
2022-12-06T23:08:38.712Z,75.29
2022-12-06T23:10:42.752Z,75.28
2022-12-06T23:12:45.398Z,75.11
2022-12-06T23:14:48.002Z,74.93
2022-12-06T23:16:50.793Z,75.02
2022-12-06T23:18:53.906Z,75.41
2022-12-06T23:21:04.328Z,75.49
2022-12-06T23:23:06.912Z,75.41
2022-12-06T23:25:09.926Z,75.37
2022-12-06T23:27:13.867Z,75.56
2022-12-06T23:29:16.975Z,75.48
2022-12-06T23:31:22.190Z,75.36
2022-12-06T23:33:24.867Z,75.49
2022-12-06T23:35:28.389Z,75.57
2022-12-06T23:37:30.997Z,75.65
2022-12-06T23:39:33.571Z,75.67
2022-12-06T23:41:37.027Z,75.86
2022-12-06T23:43:41.290Z,75.76
2022-12-06T23:45:43.924Z,75.55
2022-12-06T23:47:46.574Z,75.38
2022-12-06T23:49:49.120Z,75.71
2022-12-06T23:51:52.369Z,75.52
2022-12-06T23:53:57.594Z,75.54
2022-12-06T23:56:01.128Z,75.56
2022-12-06T23:58:03.757Z,75.77
